sensor_id;sensor_type;location;lat;lon;timestamp;pressure;altitude;pressure_sealevel;temperature;humidity
49397;BME280;35615;41.410;2.194;2022-10-16T00:00:15;101514.06;;;25.77;59.05
49397;BME280;35615;41.410;2.194;2022-10-16T00:02:43;101518.59;;;25.64;59.60
49397;BME280;35615;41.410;2.194;2022-10-16T00:05:10;101523.81;;;25.73;59.41
49397;BME280;35615;41.410;2.194;2022-10-16T00:07:37;101527.38;;;25.66;59.22
49397;BME280;35615;41.410;2.194;2022-10-16T00:10:04;101535.38;;;25.60;59.25
49397;BME280;35615;41.410;2.194;2022-10-16T00:12:32;101527.47;;;25.62;59.49
49397;BME280;35615;41.410;2.194;2022-10-16T00:14:59;101530.16;;;25.56;59.09
49397;BME280;35615;41.410;2.194;2022-10-16T00:17:27;101534.66;;;25.47;59.40
49397;BME280;35615;41.410;2.194;2022-10-16T00:19:56;101528.47;;;25.50;59.35
49397;BME280;35615;41.410;2.194;2022-10-16T00:22:23;101518.69;;;25.55;58.67
49397;BME280;35615;41.410;2.194;2022-10-16T00:24:51;101517.94;;;25.45;59.04
49397;BME280;35615;41.410;2.194;2022-10-16T00:27:19;101509.94;;;25.52;58.62
49397;BME280;35615;41.410;2.194;2022-10-16T00:29:50;101517.00;;;25.51;58.97
49397;BME280;35615;41.410;2.194;2022-10-16T00:32:21;101515.25;;;25.50;58.60
49397;BME280;35615;41.410;2.194;2022-10-16T00:34:49;101515.25;;;25.47;58.95
49397;BME280;35615;41.410;2.194;2022-10-16T00:37:16;101509.97;;;25.47;58.69
49397;BME280;35615;41.410;2.194;2022-10-16T00:39:44;101503.81;;;25.45;58.76
49397;BME280;35615;41.410;2.194;2022-10-16T00:42:15;101509.19;;;25.37;59.12
49397;BME280;35615;41.410;2.194;2022-10-16T00:44:52;101509.13;;;25.43;58.64
49397;BME280;35615;41.410;2.194;2022-10-16T00:47:26;101506.47;;;25.45;58.82
49397;BME280;35615;41.410;2.194;2022-10-16T00:52:39;101505.72;;;25.34;59.24
49397;BME280;35615;41.410;2.194;2022-10-16T00:55:10;101503.00;;;25.38;58.90
49397;BME280;35615;41.410;2.194;2022-10-16T00:57:39;101501.25;;;25.39;58.86
49397;BME280;35615;41.410;2.194;2022-10-16T01:00:08;101494.22;;;25.36;58.68
49397;BME280;35615;41.410;2.194;2022-10-16T01:02:36;101493.31;;;25.37;58.76
49397;BME280;35615;41.410;2.194;2022-10-16T01:05:04;101485.44;;;25.34;59.21
49397;BME280;35615;41.410;2.194;2022-10-16T01:07:45;101481.88;;;25.35;59.46
49397;BME280;35615;41.410;2.194;2022-10-16T01:10:39;101485.41;;;25.36;59.02
49397;BME280;35615;41.410;2.194;2022-10-16T01:13:21;101487.19;;;25.35;59.20
49397;BME280;35615;41.410;2.194;2022-10-16T01:15:58;101486.47;;;25.21;59.74
49397;BME280;35615;41.410;2.194;2022-10-16T01:24:47;101487.28;;;25.25;59.87
49397;BME280;35615;41.410;2.194;2022-10-16T01:27:11;101482.00;;;25.25;59.51
49397;BME280;35615;41.410;2.194;2022-10-16T01:32:33;101480.22;;;25.25;59.32
49397;BME280;35615;41.410;2.194;2022-10-16T01:35:45;101477.56;;;25.28;59.61
49397;BME280;35615;41.410;2.194;2022-10-16T01:38:17;101472.34;;;25.22;59.79
49397;BME280;35615;41.410;2.194;2022-10-16T01:40:49;101476.78;;;25.18;59.68
49397;BME280;35615;41.410;2.194;2022-10-16T01:43:25;101464.47;;;25.17;59.92
49397;BME280;35615;41.410;2.194;2022-10-16T01:45:54;101461.81;;;25.16;59.65
49397;BME280;35615;41.410;2.194;2022-10-16T01:48:23;101473.28;;;25.16;59.42
49397;BME280;35615;41.410;2.194;2022-10-16T01:51:02;101468.91;;;25.12;60.02
49397;BME280;35615;41.410;2.194;2022-10-16T01:53:31;101471.47;;;25.22;59.32
49397;BME280;35615;41.410;2.194;2022-10-16T01:56:00;101476.94;;;25.06;59.83
49397;BME280;35615;41.410;2.194;2022-10-16T01:58:29;101476.06;;;25.06;60.22
49397;BME280;35615;41.410;2.194;2022-10-16T02:01:03;101484.78;;;25.12;59.49
49397;BME280;35615;41.410;2.194;2022-10-16T02:03:33;101477.69;;;25.14;59.95
49397;BME280;35615;41.410;2.194;2022-10-16T02:06:01;101484.75;;;25.14;60.14
49397;BME280;35615;41.410;2.194;2022-10-16T02:08:30;101474.16;;;25.15;59.91
49397;BME280;35615;41.410;2.194;2022-10-16T02:10:58;101480.34;;;25.14;59.51
49397;BME280;35615;41.410;2.194;2022-10-16T02:13:34;101488.28;;;25.14;59.85
49397;BME280;35615;41.410;2.194;2022-10-16T02:16:04;101493.59;;;25.13;60.20
49397;BME280;35615;41.410;2.194;2022-10-16T02:18:32;101503.25;;;25.18;59.77
49397;BME280;35615;41.410;2.194;2022-10-16T02:21:07;101500.63;;;25.17;59.73
49397;BME280;35615;41.410;2.194;2022-10-16T02:26:13;101507.53;;;25.27;59.77
49397;BME280;35615;41.410;2.194;2022-10-16T02:28:42;101507.53;;;25.30;59.53
49397;BME280;35615;41.410;2.194;2022-10-16T02:31:15;101509.31;;;25.28;59.81
49397;BME280;35615;41.410;2.194;2022-10-16T02:33:45;101508.38;;;25.32;59.38
49397;BME280;35615;41.410;2.194;2022-10-16T02:36:13;101496.84;;;25.38;59.57
49397;BME280;35615;41.410;2.194;2022-10-16T02:38:40;101495.16;;;25.31;59.59
49397;BME280;35615;41.410;2.194;2022-10-16T02:41:08;101485.50;;;25.27;59.84
49397;BME280;35615;41.410;2.194;2022-10-16T02:43:38;101481.06;;;25.30;59.41
49397;BME280;35615;41.410;2.194;2022-10-16T02:46:05;101486.38;;;25.30;59.64
49397;BME280;35615;41.410;2.194;2022-10-16T02:48:32;101485.50;;;25.28;59.51
49397;BME280;35615;41.410;2.194;2022-10-16T02:51:00;101479.44;;;25.18;59.88
49397;BME280;35615;41.410;2.194;2022-10-16T02:53:27;101473.28;;;25.18;60.26
49397;BME280;35615;41.410;2.194;2022-10-16T02:55:54;101475.94;;;25.15;59.93
49397;BME280;35615;41.410;2.194;2022-10-16T02:58:21;101488.28;;;25.14;60.14
49397;BME280;35615;41.410;2.194;2022-10-16T03:01:08;101484.72;;;25.15;59.77
49397;BME280;35615;41.410;2.194;2022-10-16T03:03:36;101475.97;;;25.12;60.15
49397;BME280;35615;41.410;2.194;2022-10-16T03:06:03;101473.38;;;25.09;60.29
49397;BME280;35615;41.410;2.194;2022-10-16T03:08:38;101476.94;;;25.00;59.97
49397;BME280;35615;41.410;2.194;2022-10-16T03:11:06;101483.25;;;24.82;60.82
49397;BME280;35615;41.410;2.194;2022-10-16T03:13:37;101478.81;;;24.89;60.15
49397;BME280;35615;41.410;2.194;2022-10-16T03:16:06;101477.91;;;24.91;60.32
49397;BME280;35615;41.410;2.194;2022-10-16T03:18:33;101472.69;;;24.85;60.12
49397;BME280;35615;41.410;2.194;2022-10-16T03:21:07;101475.38;;;24.79;60.28
49397;BME280;35615;41.410;2.194;2022-10-16T03:23:35;101466.53;;;24.83;60.23
49397;BME280;35615;41.410;2.194;2022-10-16T03:26:05;101471.03;;;24.71;60.17
49397;BME280;35615;41.410;2.194;2022-10-16T03:28:33;101465.78;;;24.68;60.48
49397;BME280;35615;41.410;2.194;2022-10-16T03:31:01;101458.72;;;24.68;60.33
49397;BME280;35615;41.410;2.194;2022-10-16T03:33:29;101464.06;;;24.65;60.34
49397;BME280;35615;41.410;2.194;2022-10-16T03:35:58;101467.59;;;24.64;60.59
49397;BME280;35615;41.410;2.194;2022-10-16T03:38:26;101473.78;;;24.61;60.80
49397;BME280;35615;41.410;2.194;2022-10-16T03:40:55;101472.00;;;24.63;60.79
49397;BME280;35615;41.410;2.194;2022-10-16T03:43:25;101471.22;;;24.52;60.99
49397;BME280;35615;41.410;2.194;2022-10-16T03:45:56;101474.75;;;24.51;61.08
49397;BME280;35615;41.410;2.194;2022-10-16T03:48:23;101475.53;;;24.62;60.71
49397;BME280;35615;41.410;2.194;2022-10-16T03:50:54;101483.53;;;24.52;61.02
49397;BME280;35615;41.410;2.194;2022-10-16T03:53:22;101482.63;;;24.54;60.93
49397;BME280;35615;41.410;2.194;2022-10-16T03:55:49;101463.34;;;24.43;60.98
49397;BME280;35615;41.410;2.194;2022-10-16T03:58:20;101466.84;;;24.47;60.92
49397;BME280;35615;41.410;2.194;2022-10-16T04:00:48;101473.06;;;24.37;61.14
49397;BME280;35615;41.410;2.194;2022-10-16T04:03:17;101485.44;;;24.33;60.95
49397;BME280;35615;41.410;2.194;2022-10-16T04:05:49;101486.34;;;24.30;60.90
49397;BME280;35615;41.410;2.194;2022-10-16T04:08:18;101483.66;;;24.35;60.65
49397;BME280;35615;41.410;2.194;2022-10-16T04:10:49;101485.44;;;24.31;61.39
49397;BME280;35615;41.410;2.194;2022-10-16T04:13:20;101484.56;;;24.28;60.95
49397;BME280;35615;41.410;2.194;2022-10-16T04:15:48;101489.81;;;24.26;61.24
49397;BME280;35615;41.410;2.194;2022-10-16T04:18:17;101490.72;;;24.33;60.84
49397;BME280;35615;41.410;2.194;2022-10-16T04:20:48;101496.88;;;24.29;61.28
49397;BME280;35615;41.410;2.194;2022-10-16T04:23:16;101498.63;;;24.27;61.50
49397;BME280;35615;41.410;2.194;2022-10-16T04:25:44;101501.28;;;24.25;61.26
49397;BME280;35615;41.410;2.194;2022-10-16T04:28:15;101505.69;;;24.29;61.32
49397;BME280;35615;41.410;2.194;2022-10-16T04:30:43;101498.69;;;24.21;61.68
49397;BME280;35615;41.410;2.194;2022-10-16T04:33:11;101507.47;;;24.23;61.74
49397;BME280;35615;41.410;2.194;2022-10-16T04:35:40;101499.50;;;24.27;61.61
49397;BME280;35615;41.410;2.194;2022-10-16T04:38:10;101498.63;;;24.25;61.39
49397;BME280;35615;41.410;2.194;2022-10-16T04:40:37;101501.28;;;24.25;61.52
49397;BME280;35615;41.410;2.194;2022-10-16T04:43:09;101503.91;;;24.33;61.63
49397;BME280;35615;41.410;2.194;2022-10-16T04:45:38;101499.53;;;24.32;61.45
49397;BME280;35615;41.410;2.194;2022-10-16T04:48:05;101496.91;;;24.30;61.32
49397;BME280;35615;41.410;2.194;2022-10-16T04:50:33;101504.78;;;24.27;61.66
49397;BME280;35615;41.410;2.194;2022-10-16T04:53:05;101506.56;;;24.33;61.41
49397;BME280;35615;41.410;2.194;2022-10-16T04:55:33;101508.31;;;24.32;61.37
49397;BME280;35615;41.410;2.194;2022-10-16T04:58:00;101507.44;;;24.29;61.56
49397;BME280;35615;41.410;2.194;2022-10-16T05:00:28;101510.06;;;24.35;61.25
49397;BME280;35615;41.410;2.194;2022-10-16T05:02:55;101512.72;;;24.29;61.69
49397;BME280;35615;41.410;2.194;2022-10-16T05:05:23;101510.97;;;24.28;61.39
49397;BME280;35615;41.410;2.194;2022-10-16T05:07:51;101513.56;;;24.37;61.67
49397;BME280;35615;41.410;2.194;2022-10-16T05:10:19;101511.84;;;24.30;61.74
49397;BME280;35615;41.410;2.194;2022-10-16T05:12:47;101519.78;;;24.31;61.33
49397;BME280;35615;41.410;2.194;2022-10-16T05:15:14;101522.38;;;24.34;61.37
49397;BME280;35615;41.410;2.194;2022-10-16T05:17:45;101526.75;;;24.37;61.54
49397;BME280;35615;41.410;2.194;2022-10-16T05:20:16;101519.75;;;24.34;61.04
49397;BME280;35615;41.410;2.194;2022-10-16T05:22:43;101526.75;;;24.37;61.56
49397;BME280;35615;41.410;2.194;2022-10-16T05:25:12;101528.50;;;24.38;61.25
49397;BME280;35615;41.410;2.194;2022-10-16T05:27:40;101547.06;;;24.32;61.33
49397;BME280;35615;41.410;2.194;2022-10-16T05:30:08;101547.94;;;24.31;61.56
49397;BME280;35615;41.410;2.194;2022-10-16T05:32:39;101547.03;;;24.27;61.99
49397;BME280;35615;41.410;2.194;2022-10-16T05:35:08;101553.22;;;24.25;62.12
49397;BME280;35615;41.410;2.194;2022-10-16T05:37:38;101544.47;;;24.18;62.11
49397;BME280;35615;41.410;2.194;2022-10-16T05:40:07;101549.72;;;24.20;61.97
49397;BME280;35615;41.410;2.194;2022-10-16T05:42:35;101550.63;;;24.20;61.95
49397;BME280;35615;41.410;2.194;2022-10-16T05:45:05;101562.94;;;24.20;62.10
49397;BME280;35615;41.410;2.194;2022-10-16T05:47:34;101562.13;;;24.07;62.37
49397;BME280;35615;41.410;2.194;2022-10-16T05:50:04;101569.13;;;24.11;62.30
49397;BME280;35615;41.410;2.194;2022-10-16T05:52:33;101573.50;;;24.14;61.67
49397;BME280;35615;41.410;2.194;2022-10-16T05:55:02;101574.44;;;24.05;62.02
49397;BME280;35615;41.410;2.194;2022-10-16T05:57:36;101568.28;;;24.04;62.11
49397;BME280;35615;41.410;2.194;2022-10-16T06:00:04;101563.88;;;24.07;61.70
49397;BME280;35615;41.410;2.194;2022-10-16T06:02:41;101565.66;;;24.06;61.38
49397;BME280;35615;41.410;2.194;2022-10-16T06:05:10;101570.97;;;23.92;62.15
49397;BME280;35615;41.410;2.194;2022-10-16T06:07:39;101582.41;;;23.93;61.84
49397;BME280;35615;41.410;2.194;2022-10-16T06:10:08;101584.16;;;23.91;62.10
49397;BME280;35615;41.410;2.194;2022-10-16T06:12:36;101585.91;;;23.93;61.89
49397;BME280;35615;41.410;2.194;2022-10-16T06:15:05;101588.56;;;23.90;61.54
49397;BME280;35615;41.410;2.194;2022-10-16T06:17:36;101591.25;;;23.76;62.00
49397;BME280;35615;41.410;2.194;2022-10-16T06:20:05;101595.66;;;23.77;61.96
49397;BME280;35615;41.410;2.194;2022-10-16T06:22:36;101593.00;;;23.81;62.00
49397;BME280;35615;41.410;2.194;2022-10-16T06:25:08;101595.66;;;23.77;62.18
49397;BME280;35615;41.410;2.194;2022-10-16T06:27:38;101593.88;;;23.83;61.27
49397;BME280;35615;41.410;2.194;2022-10-16T06:30:11;101590.38;;;23.77;61.28
49397;BME280;35615;41.410;2.194;2022-10-16T06:32:40;101591.25;;;23.80;60.80
49397;BME280;35615;41.410;2.194;2022-10-16T06:35:10;101603.56;;;23.84;60.62
49397;BME280;35615;41.410;2.194;2022-10-16T06:37:37;101614.13;;;23.85;60.75
49397;BME280;35615;41.410;2.194;2022-10-16T06:40:08;101610.59;;;23.79;60.65
49397;BME280;35615;41.410;2.194;2022-10-16T06:42:37;101607.06;;;23.80;60.52
49397;BME280;35615;41.410;2.194;2022-10-16T06:45:09;101607.09;;;23.75;60.31
49397;BME280;35615;41.410;2.194;2022-10-16T06:47:38;101601.81;;;23.76;60.53
49397;BME280;35615;41.410;2.194;2022-10-16T06:50:07;101615.00;;;23.76;60.38
49397;BME280;35615;41.410;2.194;2022-10-16T06:52:38;101614.09;;;23.81;59.85
49397;BME280;35615;41.410;2.194;2022-10-16T06:55:09;101614.13;;;23.76;60.09
49397;BME280;35615;41.410;2.194;2022-10-16T06:57:39;101619.41;;;23.77;59.96
49397;BME280;35615;41.410;2.194;2022-10-16T07:00:10;101615.00;;;23.86;60.17
49397;BME280;35615;41.410;2.194;2022-10-16T07:02:41;101615.00;;;23.70;60.42
49397;BME280;35615;41.410;2.194;2022-10-16T07:05:20;101626.41;;;23.86;60.03
49397;BME280;35615;41.410;2.194;2022-10-16T07:07:49;101627.28;;;23.91;60.01
49397;BME280;35615;41.410;2.194;2022-10-16T07:10:21;101632.56;;;23.91;60.42
49397;BME280;35615;41.410;2.194;2022-10-16T07:12:53;101633.41;;;24.01;60.08
49397;BME280;35615;41.410;2.194;2022-10-16T07:15:25;101633.38;;;24.04;59.88
49397;BME280;35615;41.410;2.194;2022-10-16T07:17:56;101638.66;;;24.10;59.84
49397;BME280;35615;41.410;2.194;2022-10-16T07:20:44;101644.84;;;24.03;59.96
49397;BME280;35615;41.410;2.194;2022-10-16T07:23:18;101642.19;;;24.11;59.53
49397;BME280;35615;41.410;2.194;2022-10-16T07:26:01;101643.03;;;24.16;59.65
49397;BME280;35615;41.410;2.194;2022-10-16T07:28:40;101651.88;;;24.07;59.55
49397;BME280;35615;41.410;2.194;2022-10-16T07:31:37;101655.38;;;24.12;59.85
49397;BME280;35615;41.410;2.194;2022-10-16T07:34:22;101652.75;;;24.09;59.86
49397;BME280;35615;41.410;2.194;2022-10-16T07:36:59;101660.59;;;24.26;59.31
49397;BME280;35615;41.410;2.194;2022-10-16T07:39:38;101662.38;;;24.31;58.84
49397;BME280;35615;41.410;2.194;2022-10-16T07:42:10;101661.47;;;24.34;59.12
49397;BME280;35615;41.410;2.194;2022-10-16T07:45:03;101670.28;;;24.27;58.96
49397;BME280;35615;41.410;2.194;2022-10-16T07:47:36;101673.78;;;24.27;58.78
49397;BME280;35615;41.410;2.194;2022-10-16T07:50:17;101682.59;;;24.36;58.51
49397;BME280;35615;41.410;2.194;2022-10-16T07:52:54;101687.84;;;24.46;59.00
49397;BME280;35615;41.410;2.194;2022-10-16T07:55:44;101694.91;;;24.41;58.41
49397;BME280;35615;41.410;2.194;2022-10-16T07:58:20;101700.16;;;24.47;58.26
49397;BME280;35615;41.410;2.194;2022-10-16T08:00:55;101701.00;;;24.58;57.71
49397;BME280;35615;41.410;2.194;2022-10-16T08:03:42;101698.25;;;24.78;57.38
49397;BME280;35615;41.410;2.194;2022-10-16T08:06:19;101698.22;;;24.87;57.57
49397;BME280;35615;41.410;2.194;2022-10-16T08:09:02;101701.53;;;25.23;56.47
49397;BME280;35615;41.410;2.194;2022-10-16T08:11:50;101704.84;;;25.49;55.65
49397;BME280;35615;41.410;2.194;2022-10-16T08:14:42;101702.03;;;25.68;55.24
49397;BME280;35615;41.410;2.194;2022-10-16T08:17:24;101707.31;;;25.75;54.57
49397;BME280;35615;41.410;2.194;2022-10-16T08:20:13;101707.69;;;26.23;53.76
49397;BME280;35615;41.410;2.194;2022-10-16T08:22:59;101708.41;;;26.41;53.46
49397;BME280;35615;41.410;2.194;2022-10-16T08:25:44;101707.56;;;26.39;53.53
49397;BME280;35615;41.410;2.194;2022-10-16T08:28:21;101714.94;;;26.81;53.08
49397;BME280;35615;41.410;2.194;2022-10-16T08:31:13;101713.88;;;26.93;51.80
49397;BME280;35615;41.410;2.194;2022-10-16T08:34:04;101721.53;;;27.17;51.69
49397;BME280;35615;41.410;2.194;2022-10-16T08:36:40;101717.47;;;27.50;51.23
49397;BME280;35615;41.410;2.194;2022-10-16T08:39:15;101724.91;;;27.83;50.81
49397;BME280;35615;41.410;2.194;2022-10-16T08:50:56;101737.25;;;27.30;51.08
49397;BME280;35615;41.410;2.194;2022-10-16T08:53:33;101728.56;;;27.20;50.97
49397;BME280;35615;41.410;2.194;2022-10-16T08:56:20;101729.63;;;27.08;51.25
49397;BME280;35615;41.410;2.194;2022-10-16T08:58:57;101735.16;;;26.88;51.24
49397;BME280;35615;41.410;2.194;2022-10-16T09:01:58;101731.75;;;26.79;51.68
49397;BME280;35615;41.410;2.194;2022-10-16T09:04:55;101731.56;;;26.96;51.61
49397;BME280;35615;41.410;2.194;2022-10-16T09:10:46;101732.22;;;27.11;50.72
49397;BME280;35615;41.410;2.194;2022-10-16T09:25:33;101755.88;;;27.27;51.50
49397;BME280;35615;41.410;2.194;2022-10-16T09:28:02;101752.34;;;27.28;50.89
49397;BME280;35615;41.410;2.194;2022-10-16T09:30:37;101753.94;;;27.36;51.02
49397;BME280;35615;41.410;2.194;2022-10-16T09:33:37;101763.00;;;27.80;50.05
49397;BME280;35615;41.410;2.194;2022-10-16T09:36:59;101758.22;;;28.00;50.45
49397;BME280;35615;41.410;2.194;2022-10-16T09:39:52;101757.09;;;28.14;49.46
49397;BME280;35615;41.410;2.194;2022-10-16T09:42:34;101760.47;;;28.22;49.73
49397;BME280;35615;41.410;2.194;2022-10-16T09:45:22;101755.94;;;28.30;49.44
49397;BME280;35615;41.410;2.194;2022-10-16T09:47:56;101755.63;;;28.45;49.38
49397;BME280;35615;41.410;2.194;2022-10-16T09:50:41;101757.09;;;28.61;48.73
49397;BME280;35615;41.410;2.194;2022-10-16T09:53:19;101763.16;;;28.67;49.03
49397;BME280;35615;41.410;2.194;2022-10-16T09:55:59;101755.50;;;28.51;49.10
49397;BME280;35615;41.410;2.194;2022-10-16T09:59:22;101762.53;;;28.54;48.63
49397;BME280;35615;41.410;2.194;2022-10-16T10:02:00;101761.75;;;28.49;49.13
49397;BME280;35615;41.410;2.194;2022-10-16T10:04:52;101772.00;;;28.22;49.40
49397;BME280;35615;41.410;2.194;2022-10-16T10:07:53;101776.28;;;28.31;49.48
49397;BME280;35615;41.410;2.194;2022-10-16T10:10:37;101778.81;;;28.39;49.46
49397;BME280;35615;41.410;2.194;2022-10-16T10:13:24;101771.19;;;28.65;48.85
49397;BME280;35615;41.410;2.194;2022-10-16T10:16:00;101768.16;;;28.82;48.92
49397;BME280;35615;41.410;2.194;2022-10-16T10:18:30;101766.56;;;29.15;48.27
49397;BME280;35615;41.410;2.194;2022-10-16T10:21:15;101762.81;;;29.23;47.94
49397;BME280;35615;41.410;2.194;2022-10-16T10:23:56;101756.00;;;29.86;46.75
49397;BME280;35615;41.410;2.194;2022-10-16T10:26:37;101766.06;;;30.09;45.81
49397;BME280;35615;41.410;2.194;2022-10-16T10:29:31;101770.34;;;30.15;45.92
49397;BME280;35615;41.410;2.194;2022-10-16T10:35:14;101765.72;;;30.21;45.65
49397;BME280;35615;41.410;2.194;2022-10-16T10:50:51;101765.44;;;30.64;45.92
49397;BME280;35615;41.410;2.194;2022-10-16T11:02:50;101762.06;;;31.45;44.74
49397;BME280;35615;41.410;2.194;2022-10-16T11:09:00;101744.53;;;32.41;43.13
49397;BME280;35615;41.410;2.194;2022-10-16T11:14:34;101729.28;;;33.33;41.78
49397;BME280;35615;41.410;2.194;2022-10-16T11:17:30;101730.72;;;33.20;41.69
49397;BME280;35615;41.410;2.194;2022-10-16T11:20:25;101738.56;;;32.79;42.44
49397;BME280;35615;41.410;2.194;2022-10-16T11:26:13;101737.03;;;33.83;41.21
49397;BME280;35615;41.410;2.194;2022-10-16T11:29:03;101732.19;;;33.93;40.29
49397;BME280;35615;41.410;2.194;2022-10-16T11:32:12;101740.53;;;34.26;39.59
49397;BME280;35615;41.410;2.194;2022-10-16T11:42:19;101724.72;;;34.40;39.80
49397;BME280;35615;41.410;2.194;2022-10-16T11:45:20;101720.88;;;34.83;38.69
49397;BME280;35615;41.410;2.194;2022-10-16T11:54:24;101714.28;;;34.90;38.00
49397;BME280;35615;41.410;2.194;2022-10-16T12:00:37;101705.78;;;35.00;38.17
49397;BME280;35615;41.410;2.194;2022-10-16T12:07:07;101695.22;;;35.14;37.54
49397;BME280;35615;41.410;2.194;2022-10-16T12:09:55;101706.13;;;35.47;37.34
49397;BME280;35615;41.410;2.194;2022-10-16T12:12:55;101703.38;;;35.48;37.17
49397;BME280;35615;41.410;2.194;2022-10-16T12:15:38;101693.06;;;35.91;36.34
49397;BME280;35615;41.410;2.194;2022-10-16T12:18:46;101700.66;;;36.00;36.49
49397;BME280;35615;41.410;2.194;2022-10-16T12:21:30;101698.44;;;35.57;37.16
49397;BME280;35615;41.410;2.194;2022-10-16T12:27:30;101689.78;;;35.86;36.38
49397;BME280;35615;41.410;2.194;2022-10-16T12:30:29;101698.47;;;35.74;36.47
49397;BME280;35615;41.410;2.194;2022-10-16T12:33:40;101698.47;;;35.74;36.56
49397;BME280;35615;41.410;2.194;2022-10-16T12:36:36;101698.97;;;35.80;36.94
49397;BME280;35615;41.410;2.194;2022-10-16T12:39:27;101695.94;;;35.54;36.96
49397;BME280;35615;41.410;2.194;2022-10-16T12:45:31;101699.81;;;35.12;37.64
49397;BME280;35615;41.410;2.194;2022-10-16T12:48:25;101695.25;;;34.76;38.31
49397;BME280;35615;41.410;2.194;2022-10-16T12:51:56;101700.31;;;34.45;38.84
49397;BME280;35615;41.410;2.194;2022-10-16T12:54:43;101695.25;;;35.31;37.32
49397;BME280;35615;41.410;2.194;2022-10-16T12:57:34;101695.09;;;35.17;37.68
49397;BME280;35615;41.410;2.194;2022-10-16T13:00:45;101699.41;;;35.38;37.75
49397;BME280;35615;41.410;2.194;2022-10-16T13:03:50;101702.00;;;35.74;37.18
49397;BME280;35615;41.410;2.194;2022-10-16T13:07:15;101711.03;;;35.56;37.30
49397;BME280;35615;41.410;2.194;2022-10-16T13:10:03;101706.69;;;35.17;38.19
49397;BME280;35615;41.410;2.194;2022-10-16T13:19:12;101701.44;;;34.97;38.77
49397;BME280;35615;41.410;2.194;2022-10-16T13:28:05;101698.06;;;35.11;38.37
49397;BME280;35615;41.410;2.194;2022-10-16T13:31:01;101702.91;;;35.92;37.38
49397;BME280;35615;41.410;2.194;2022-10-16T13:33:39;101708.13;;;35.61;37.50
49397;BME280;35615;41.410;2.194;2022-10-16T13:36:46;101699.78;;;36.00;36.82
49397;BME280;35615;41.410;2.194;2022-10-16T13:39:50;101709.47;;;36.04;36.53
49397;BME280;35615;41.410;2.194;2022-10-16T13:42:27;101700.59;;;35.67;37.06
49397;BME280;35615;41.410;2.194;2022-10-16T13:45:21;101694.03;;;35.90;36.60
49397;BME280;35615;41.410;2.194;2022-10-16T13:48:09;101701.63;;;35.65;37.45
49397;BME280;35615;41.410;2.194;2022-10-16T13:51:04;101702.00;;;35.40;37.71
49397;BME280;35615;41.410;2.194;2022-10-16T13:53:47;101704.53;;;35.43;38.22
49397;BME280;35615;41.410;2.194;2022-10-16T13:56:39;101698.81;;;34.96;38.91
49397;BME280;35615;41.410;2.194;2022-10-16T13:59:24;101694.31;;;35.32;38.21
49397;BME280;35615;41.410;2.194;2022-10-16T14:02:25;101701.13;;;34.65;38.65
49397;BME280;35615;41.410;2.194;2022-10-16T14:05:08;101688.75;;;35.18;38.05
49397;BME280;35615;41.410;2.194;2022-10-16T14:07:47;101681.25;;;34.88;38.96
49397;BME280;35615;41.410;2.194;2022-10-16T14:10:29;101683.97;;;34.51;39.15
49397;BME280;35615;41.410;2.194;2022-10-16T14:13:17;101679.81;;;34.44;38.85
49397;BME280;35615;41.410;2.194;2022-10-16T14:16:07;101682.72;;;34.39;39.10
49397;BME280;35615;41.410;2.194;2022-10-16T14:19:19;101693.81;;;34.11;39.35
49397;BME280;35615;41.410;2.194;2022-10-16T14:22:20;101692.88;;;33.92;39.92
49397;BME280;35615;41.410;2.194;2022-10-16T14:25:29;101692.63;;;32.45;43.01
49397;BME280;35615;41.410;2.194;2022-10-16T14:28:24;101692.63;;;32.45;43.58
49397;BME280;35615;41.410;2.194;2022-10-16T14:34:03;101698.41;;;32.34;43.13
49397;BME280;35615;41.410;2.194;2022-10-16T14:36:48;101695.94;;;32.03;44.09
49397;BME280;35615;41.410;2.194;2022-10-16T14:39:55;101695.03;;;32.04;44.40
49397;BME280;35615;41.410;2.194;2022-10-16T14:42:37;101693.03;;;31.86;44.28
49397;BME280;35615;41.410;2.194;2022-10-16T14:45:21;101692.19;;;31.57;45.35
49397;BME280;35615;41.410;2.194;2022-10-16T14:48:06;101688.38;;;31.11;45.72
49397;BME280;35615;41.410;2.194;2022-10-16T14:50:51;101686.31;;;30.91;46.08
49397;BME280;35615;41.410;2.194;2022-10-16T14:53:45;101690.13;;;30.84;46.74
49397;BME280;35615;41.410;2.194;2022-10-16T14:56:43;101691.28;;;30.76;46.83
49397;BME280;35615;41.410;2.194;2022-10-16T14:59:39;101700.16;;;30.76;47.37
49397;BME280;35615;41.410;2.194;2022-10-16T15:02:36;101707.19;;;30.49;47.27
49397;BME280;35615;41.410;2.194;2022-10-16T15:05:23;101700.25;;;30.42;47.38
49397;BME280;35615;41.410;2.194;2022-10-16T15:08:24;101694.00;;;30.74;47.11
49397;BME280;35615;41.410;2.194;2022-10-16T15:10:59;101695.03;;;30.39;48.04
49397;BME280;35615;41.410;2.194;2022-10-16T15:13:45;101707.34;;;30.43;47.49
49397;BME280;35615;41.410;2.194;2022-10-16T15:16:34;101709.25;;;30.40;48.04
49397;BME280;35615;41.410;2.194;2022-10-16T15:19:12;101706.72;;;30.33;48.07
49397;BME280;35615;41.410;2.194;2022-10-16T15:21:57;101709.28;;;30.05;49.22
49397;BME280;35615;41.410;2.194;2022-10-16T15:24:40;101707.09;;;30.21;48.45
49397;BME280;35615;41.410;2.194;2022-10-16T15:27:41;101714.94;;;29.93;49.25
49397;BME280;35615;41.410;2.194;2022-10-16T15:33:27;101712.44;;;29.87;49.16
49397;BME280;35615;41.410;2.194;2022-10-16T15:36:39;101718.53;;;29.21;51.76
49397;BME280;35615;41.410;2.194;2022-10-16T15:39:23;101717.41;;;29.31;51.04
49397;BME280;35615;41.410;2.194;2022-10-16T15:42:08;101721.19;;;29.21;51.64
49397;BME280;35615;41.410;2.194;2022-10-16T15:44:52;101720.97;;;28.91;52.77
49397;BME280;35615;41.410;2.194;2022-10-16T15:47:36;101725.06;;;28.66;53.00